createdAt,value
2022-10-12T00:00:34.462Z,95.70
2022-10-12T00:03:01.175Z,95.80
2022-10-12T00:05:27.909Z,95.80
2022-10-12T00:07:54.658Z,95.90
2022-10-12T00:10:21.344Z,95.70
2022-10-12T00:12:48.087Z,95.90
2022-10-12T00:15:14.828Z,95.90
2022-10-12T00:17:41.564Z,95.60
2022-10-12T00:20:08.709Z,95.90
2022-10-12T00:22:35.534Z,95.60
2022-10-12T00:25:02.218Z,95.90
2022-10-12T00:27:28.955Z,95.90
2022-10-12T00:29:55.796Z,95.60
2022-10-12T00:32:22.507Z,95.80
2022-10-12T00:34:49.236Z,95.70
2022-10-12T00:37:15.976Z,95.70
2022-10-12T00:39:42.697Z,95.40
2022-10-12T00:42:11.335Z,95.70
2022-10-12T00:44:48.123Z,95.80
2022-10-12T00:47:17.560Z,95.50
2022-10-12T00:49:46.655Z,95.80
2022-10-12T00:52:15.778Z,95.70
2022-10-12T00:54:44.238Z,95.70
2022-10-12T00:57:12.726Z,95.80
2022-10-12T00:59:44.665Z,95.60
2022-10-12T01:02:12.540Z,95.50
2022-10-12T01:04:40.090Z,95.80
2022-10-12T01:07:06.938Z,95.60
2022-10-12T01:09:33.617Z,95.70
2022-10-12T01:12:00.400Z,95.80
2022-10-12T01:14:27.281Z,95.80
2022-10-12T01:16:57.076Z,95.70
2022-10-12T01:19:36.003Z,95.70
2022-10-12T01:22:04.661Z,95.80
2022-10-12T01:24:54.447Z,95.50
2022-10-12T01:27:21.139Z,95.80
2022-10-12T01:30:03.889Z,95.60
2022-10-12T01:32:30.555Z,95.70
2022-10-12T01:35:01.856Z,95.60
2022-10-12T01:37:51.482Z,95.70
2022-10-12T01:40:27.036Z,95.50
2022-10-12T01:42:54.474Z,95.60
2022-10-12T01:45:21.651Z,95.90
2022-10-12T01:47:52.564Z,95.70
2022-10-12T01:50:21.903Z,95.80
2022-10-12T01:53:04.075Z,95.60
2022-10-12T01:55:37.118Z,95.60
2022-10-12T01:58:16.017Z,95.70
2022-10-12T02:00:46.513Z,95.50
2022-10-12T02:03:42.790Z,95.80
2022-10-12T02:06:12.165Z,95.80
2022-10-12T02:08:45.159Z,95.80
2022-10-12T02:11:13.457Z,95.60
2022-10-12T02:13:43.246Z,95.70
2022-10-12T02:16:11.732Z,95.80
2022-10-12T02:18:40.137Z,95.80
2022-10-12T02:21:07.712Z,95.70
2022-10-12T02:23:34.687Z,95.80
2022-10-12T02:26:02.204Z,95.90
2022-10-12T02:28:29.800Z,95.80
2022-10-12T02:31:01.676Z,95.70
2022-10-12T02:33:51.313Z,95.60
2022-10-12T02:36:25.782Z,95.90
2022-10-12T02:39:00.040Z,95.50
2022-10-12T02:41:33.541Z,95.70
2022-10-12T02:44:01.265Z,95.50
2022-10-12T02:46:28.812Z,95.50
2022-10-12T02:49:03.277Z,95.50
2022-10-12T02:51:44.077Z,95.80
2022-10-12T02:54:11.230Z,95.70
2022-10-12T02:56:45.766Z,95.90
2022-10-12T02:59:16.896Z,95.80
2022-10-12T03:01:44.091Z,95.90
2022-10-12T03:04:10.931Z,95.70
2022-10-12T03:06:37.639Z,95.90
2022-10-12T03:09:05.146Z,95.90
2022-10-12T03:11:32.076Z,95.90
2022-10-12T03:13:58.845Z,95.70
2022-10-12T03:16:25.788Z,95.80
2022-10-12T03:18:52.668Z,95.80
2022-10-12T03:21:19.394Z,95.90
2022-10-12T03:23:46.120Z,95.90
2022-10-12T03:26:12.993Z,95.90
2022-10-12T03:28:39.913Z,96.10
2022-10-12T03:31:06.694Z,95.80
2022-10-12T03:33:33.477Z,96.00
2022-10-12T03:36:00.330Z,95.80
2022-10-12T03:38:27.054Z,95.80
2022-10-12T03:40:53.824Z,95.80
2022-10-12T03:43:20.584Z,95.90
2022-10-12T03:45:47.378Z,95.90
2022-10-12T03:48:14.338Z,95.80
2022-10-12T03:50:41.091Z,95.90
2022-10-12T03:53:07.854Z,95.90
2022-10-12T03:55:34.584Z,95.80
2022-10-12T03:58:01.364Z,96.00
2022-10-12T04:00:28.359Z,95.90
2022-10-12T04:02:55.809Z,95.90
2022-10-12T04:05:22.908Z,95.90
2022-10-12T04:07:49.874Z,95.90
2022-10-12T04:10:16.696Z,96.00
2022-10-12T04:12:43.401Z,96.20
2022-10-12T04:15:10.371Z,95.70
2022-10-12T04:17:37.465Z,95.90
2022-10-12T04:20:04.790Z,95.80
2022-10-12T04:22:31.548Z,95.90
2022-10-12T04:24:58.305Z,95.70
2022-10-12T04:27:25.051Z,95.90
2022-10-12T04:29:51.761Z,95.80
2022-10-12T04:32:18.612Z,95.90
2022-10-12T04:34:45.313Z,95.80
2022-10-12T04:37:12.013Z,95.90
2022-10-12T04:39:38.747Z,95.90
2022-10-12T04:42:07.134Z,95.60
2022-10-12T04:44:34.058Z,95.80
2022-10-12T04:47:01.296Z,96.10
2022-10-12T04:49:27.990Z,95.80
2022-10-12T04:51:54.736Z,95.80
2022-10-12T04:54:21.577Z,95.80
2022-10-12T04:56:48.456Z,95.80
2022-10-12T04:59:15.298Z,95.80
2022-10-12T05:01:42.332Z,95.90
2022-10-12T05:04:09.220Z,95.70
2022-10-12T05:06:35.958Z,95.60
2022-10-12T05:09:02.976Z,95.80
2022-10-12T05:11:29.690Z,95.50
2022-10-12T05:13:56.384Z,95.40
2022-10-12T05:16:23.198Z,95.60
2022-10-12T05:18:49.870Z,95.60
2022-10-12T05:21:16.838Z,95.60
2022-10-12T05:23:43.640Z,95.70
2022-10-12T05:26:10.324Z,95.60
2022-10-12T05:28:40.929Z,95.60
2022-10-12T05:31:08.195Z,95.40
2022-10-12T05:33:35.124Z,95.50
2022-10-12T05:36:01.812Z,95.70
2022-10-12T05:38:28.663Z,95.50
2022-10-12T05:41:00.318Z,95.70
2022-10-12T05:43:28.090Z,95.50
2022-10-12T05:45:54.839Z,95.50
2022-10-12T05:48:21.581Z,95.50
2022-10-12T05:50:48.340Z,95.70
2022-10-12T05:53:15.219Z,95.60
2022-10-12T05:55:51.211Z,95.40
2022-10-12T05:58:18.092Z,95.50
2022-10-12T06:00:44.821Z,95.60
2022-10-12T06:03:11.511Z,95.50
2022-10-12T06:05:38.306Z,95.70
2022-10-12T06:08:05.160Z,95.30
2022-10-12T06:10:32.236Z,95.50
2022-10-12T06:12:59.089Z,95.30
2022-10-12T06:15:25.814Z,95.70
2022-10-12T06:17:52.530Z,95.60
2022-10-12T06:20:19.383Z,95.50
2022-10-12T06:22:46.087Z,95.30
2022-10-12T06:25:12.763Z,95.40
2022-10-12T06:27:39.497Z,95.40
2022-10-12T06:30:06.431Z,95.30
2022-10-12T06:32:33.537Z,95.50
2022-10-12T06:35:00.295Z,95.20
2022-10-12T06:37:48.421Z,95.50
2022-10-12T06:40:16.458Z,95.30
2022-10-12T06:42:43.186Z,95.40
2022-10-12T06:45:10.167Z,95.60
2022-10-12T06:47:36.950Z,95.80
2022-10-12T06:50:03.825Z,95.60
2022-10-12T06:52:31.630Z,95.60
2022-10-12T06:54:58.437Z,95.50
2022-10-12T06:57:25.135Z,95.50
2022-10-12T06:59:51.870Z,95.40
2022-10-12T07:02:18.727Z,95.30
2022-10-12T07:04:49.158Z,95.70
2022-10-12T07:07:15.834Z,95.50
2022-10-12T07:09:42.751Z,95.40
2022-10-12T07:12:09.438Z,95.50
2022-10-12T07:14:36.153Z,95.60
2022-10-12T07:17:02.990Z,95.50
2022-10-12T07:19:29.693Z,95.50
2022-10-12T07:21:56.562Z,95.40
2022-10-12T07:24:23.394Z,95.50
2022-10-12T07:26:50.608Z,95.60
2022-10-12T07:29:17.297Z,95.70
2022-10-12T07:31:47.336Z,95.70
2022-10-12T07:34:16.442Z,95.70
2022-10-12T07:36:58.644Z,95.70
2022-10-12T07:39:26.492Z,95.70
2022-10-12T07:41:53.349Z,95.70
2022-10-12T07:44:20.191Z,95.70
2022-10-12T07:46:47.080Z,95.80
2022-10-12T07:49:14.622Z,95.70
2022-10-12T07:51:42.842Z,95.90
2022-10-12T07:54:09.667Z,96.00
2022-10-12T07:56:36.484Z,96.00
2022-10-12T07:59:03.561Z,96.10
2022-10-12T08:01:34.719Z,95.80
2022-10-12T08:04:02.215Z,95.90
2022-10-12T08:06:32.642Z,95.80
2022-10-12T08:09:00.063Z,96.10
2022-10-12T08:11:27.257Z,95.80
2022-10-12T08:13:54.073Z,95.80
2022-10-12T08:16:21.279Z,95.80
2022-10-12T08:18:48.153Z,95.80
2022-10-12T08:21:15.596Z,95.90
2022-10-12T08:23:44.461Z,95.90
2022-10-12T08:26:12.103Z,95.90
2022-10-12T08:28:39.099Z,95.90
2022-10-12T08:31:10.665Z,95.90
2022-10-12T08:33:37.481Z,95.90
2022-10-12T08:36:05.529Z,95.90
2022-10-12T08:38:32.666Z,96.10
2022-10-12T08:41:18.147Z,95.90
2022-10-12T08:43:48.277Z,95.80
2022-10-12T08:46:18.845Z,95.90
2022-10-12T08:48:47.226Z,94.70
2022-10-12T08:51:16.880Z,94.10
2022-10-12T08:53:43.850Z,94.00
2022-10-12T08:56:10.691Z,93.70
2022-10-12T08:58:38.773Z,93.40
2022-10-12T09:01:24.238Z,92.90
2022-10-12T09:04:05.041Z,92.50
2022-10-12T09:06:40.764Z,92.50
2022-10-12T09:09:10.252Z,91.30
2022-10-12T09:11:49.015Z,91.10
2022-10-12T09:14:25.662Z,91.30
2022-10-12T09:16:55.441Z,91.20
2022-10-12T09:19:24.478Z,90.80
2022-10-12T09:21:51.248Z,90.90
2022-10-12T09:24:24.337Z,91.10
2022-10-12T09:26:52.234Z,91.10
2022-10-12T09:29:24.416Z,92.00
2022-10-12T09:31:57.232Z,93.10
2022-10-12T09:34:24.444Z,93.40
2022-10-12T09:36:51.204Z,93.50
2022-10-12T09:39:19.662Z,93.80
2022-10-12T09:41:47.247Z,93.70
2022-10-12T09:44:25.047Z,93.70
2022-10-12T09:47:01.871Z,94.00
2022-10-12T09:49:39.412Z,94.10
2022-10-12T09:52:06.228Z,94.10
2022-10-12T09:54:33.487Z,93.60
2022-10-12T09:57:00.247Z,94.10
2022-10-12T09:59:47.261Z,94.30
2022-10-12T10:02:15.969Z,94.40
2022-10-12T10:04:43.766Z,94.30
2022-10-12T10:07:13.442Z,93.80
2022-10-12T10:09:40.260Z,94.30
2022-10-12T10:12:13.374Z,94.40
2022-10-12T10:14:42.801Z,93.70
2022-10-12T10:17:12.877Z,93.80
2022-10-12T10:19:39.667Z,94.10
2022-10-12T10:22:09.491Z,94.40
2022-10-12T10:24:36.230Z,94.50
2022-10-12T10:27:04.260Z,94.40
2022-10-12T10:29:34.798Z,93.80
2022-10-12T10:32:23.836Z,93.90
2022-10-12T10:35:16.874Z,94.10
2022-10-12T10:37:45.362Z,94.60
2022-10-12T10:40:18.729Z,94.00
2022-10-12T10:42:49.170Z,94.00
2022-10-12T10:45:22.567Z,94.00
2022-10-12T10:47:50.100Z,93.90
2022-10-12T10:50:29.401Z,94.20
2022-10-12T10:53:00.941Z,94.20
2022-10-12T10:55:47.890Z,94.20
2022-10-12T10:58:33.286Z,94.40
2022-10-12T11:01:13.654Z,94.00
2022-10-12T11:03:45.955Z,94.60
2022-10-12T11:06:21.227Z,94.60
2022-10-12T11:08:51.361Z,95.10
2022-10-12T11:11:23.322Z,94.60
2022-10-12T11:13:55.807Z,94.90
2022-10-12T11:16:41.370Z,94.90
2022-10-12T11:19:14.123Z,94.90
2022-10-12T11:22:01.210Z,95.00
2022-10-12T11:24:42.135Z,94.70
2022-10-12T11:27:11.910Z,95.10
2022-10-12T11:29:39.003Z,95.10
2022-10-12T11:32:07.730Z,95.00
2022-10-12T11:34:48.382Z,95.30
2022-10-12T11:37:20.287Z,94.90
2022-10-12T11:39:52.380Z,95.40
2022-10-12T11:42:31.197Z,95.30
2022-10-12T11:45:00.703Z,95.30
2022-10-12T11:47:30.433Z,95.00
2022-10-12T11:50:02.761Z,95.30
2022-10-12T11:52:36.685Z,95.10
2022-10-12T11:55:29.480Z,95.20
2022-10-12T11:57:59.406Z,95.10
2022-10-12T12:00:30.317Z,95.30
2022-10-12T12:03:12.797Z,95.20
2022-10-12T12:05:39.683Z,95.20
2022-10-12T12:08:06.413Z,95.20
2022-10-12T12:10:36.078Z,95.30
2022-10-12T12:13:15.261Z,95.20
2022-10-12T12:15:43.396Z,95.20
2022-10-12T12:18:12.076Z,95.00
2022-10-12T12:20:45.113Z,95.10
2022-10-12T12:23:21.865Z,95.40
2022-10-12T12:26:04.321Z,94.90
2022-10-12T12:28:31.684Z,95.30
2022-10-12T12:31:02.737Z,95.50
2022-10-12T12:33:36.021Z,95.30
2022-10-12T12:36:04.806Z,95.00
2022-10-12T12:38:33.201Z,95.30
2022-10-12T12:41:04.436Z,95.10
2022-10-12T12:43:31.115Z,95.40
2022-10-12T12:45:57.857Z,95.30
2022-10-12T12:48:44.999Z,95.20
2022-10-12T12:51:16.760Z,95.30
2022-10-12T12:53:56.237Z,95.30
2022-10-12T12:56:28.334Z,95.40
2022-10-12T12:59:01.617Z,95.40
2022-10-12T13:01:43.448Z,95.10
2022-10-12T13:04:30.242Z,95.00
2022-10-12T13:07:15.663Z,95.50
2022-10-12T13:09:42.565Z,95.20
2022-10-12T13:12:24.264Z,95.30
2022-10-12T13:15:02.164Z,95.40
2022-10-12T13:17:37.798Z,95.10
2022-10-12T13:20:15.627Z,95.20
2022-10-12T13:22:42.952Z,94.80
2022-10-12T13:25:13.635Z,95.20
2022-10-12T13:27:43.308Z,95.70
2022-10-12T13:30:28.538Z,95.60
2022-10-12T13:33:27.641Z,95.70
2022-10-12T13:36:15.615Z,95.50
2022-10-12T13:38:42.369Z,95.70
2022-10-12T13:41:09.075Z,95.40
2022-10-12T13:43:44.894Z,95.60
2022-10-12T13:46:15.285Z,95.60
2022-10-12T13:48:59.311Z,95.50
2022-10-12T13:51:28.014Z,95.50
2022-10-12T13:53:55.179Z,95.70
2022-10-12T13:56:26.308Z,95.80
2022-10-12T13:58:55.962Z,95.90
2022-10-12T14:01:22.777Z,95.60
2022-10-12T14:03:49.555Z,95.80
2022-10-12T14:06:32.894Z,95.80
2022-10-12T14:09:06.310Z,95.70
2022-10-12T14:11:33.608Z,95.80
2022-10-12T14:14:00.522Z,95.80
2022-10-12T14:16:27.273Z,95.60
2022-10-12T14:18:54.080Z,95.80
2022-10-12T14:21:25.743Z,95.90
2022-10-12T14:23:52.501Z,95.80
2022-10-12T14:26:25.343Z,96.00
2022-10-12T14:28:52.862Z,96.00
2022-10-12T14:31:19.686Z,95.90
2022-10-12T14:33:46.627Z,95.80
2022-10-12T14:36:31.234Z,96.00
2022-10-12T14:39:10.128Z,96.00
2022-10-12T14:41:48.718Z,95.90
2022-10-12T14:44:17.625Z,96.00
2022-10-12T14:46:52.546Z,96.10
2022-10-12T14:49:19.682Z,95.90
2022-10-12T14:51:46.515Z,96.00
2022-10-12T14:54:13.629Z,96.00
2022-10-12T14:56:40.499Z,96.10
2022-10-12T14:59:07.198Z,95.80
2022-10-12T15:01:37.880Z,95.90
2022-10-12T15:04:07.820Z,96.00
2022-10-12T15:06:34.565Z,96.00
2022-10-12T15:09:01.262Z,96.20
2022-10-12T15:11:28.170Z,96.20
2022-10-12T15:13:54.899Z,96.10
2022-10-12T15:16:23.115Z,96.00
2022-10-12T15:18:50.281Z,96.10
2022-10-12T15:21:17.537Z,96.10
2022-10-12T15:23:44.602Z,96.40
2022-10-12T15:26:15.605Z,96.20
2022-10-12T15:28:43.367Z,96.20
2022-10-12T15:31:19.072Z,96.00
2022-10-12T15:33:46.102Z,96.10
2022-10-12T15:36:12.825Z,96.20
2022-10-12T15:38:39.891Z,96.10
2022-10-12T15:41:10.287Z,96.10
2022-10-12T15:43:39.643Z,96.20
2022-10-12T15:46:09.905Z,96.20
2022-10-12T15:48:37.120Z,96.10
2022-10-12T15:51:07.277Z,96.10
2022-10-12T15:53:33.989Z,96.00
2022-10-12T15:56:00.754Z,96.10
2022-10-12T15:58:27.441Z,96.10
2022-10-12T16:00:54.338Z,96.10
2022-10-12T16:03:25.618Z,96.10
2022-10-12T16:05:53.033Z,96.20
2022-10-12T16:08:19.712Z,96.20
2022-10-12T16:10:47.901Z,96.10
2022-10-12T16:13:15.126Z,96.20
2022-10-12T16:15:42.082Z,96.20
2022-10-12T16:18:09.449Z,96.10
2022-10-12T16:20:37.576Z,96.00
2022-10-12T16:23:06.127Z,96.40
2022-10-12T16:25:32.947Z,96.20
2022-10-12T16:27:59.652Z,96.10
2022-10-12T16:30:26.818Z,96.30
2022-10-12T16:32:53.661Z,96.40
2022-10-12T16:35:20.668Z,96.30
2022-10-12T16:37:47.394Z,96.30
2022-10-12T16:40:14.545Z,96.30
2022-10-12T16:42:41.259Z,96.30
2022-10-12T16:45:08.321Z,96.10
2022-10-12T16:47:38.860Z,96.30
2022-10-12T16:50:09.486Z,96.30
2022-10-12T16:52:36.325Z,96.30
2022-10-12T16:55:03.070Z,96.20
2022-10-12T16:57:29.895Z,96.40
2022-10-12T16:59:56.772Z,96.40
2022-10-12T17:02:23.457Z,96.40
2022-10-12T17:04:50.317Z,96.20
2022-10-12T17:07:17.195Z,96.30
2022-10-12T17:09:43.939Z,96.20
2022-10-12T17:12:10.661Z,96.40
2022-10-12T17:14:43.725Z,96.40
2022-10-12T17:17:10.427Z,96.50
2022-10-12T17:19:39.799Z,96.40
2022-10-12T17:22:07.688Z,96.20
2022-10-12T17:24:35.732Z,96.40
2022-10-12T17:27:03.252Z,96.40
2022-10-12T17:29:30.610Z,96.20
2022-10-12T17:31:58.236Z,96.30
2022-10-12T17:34:26.209Z,96.40
2022-10-12T17:36:54.500Z,96.40
2022-10-12T17:39:21.295Z,96.30
2022-10-12T17:41:48.147Z,96.40
2022-10-12T17:44:15.462Z,96.40
2022-10-12T17:46:43.123Z,96.50
2022-10-12T17:49:13.395Z,96.40
2022-10-12T17:51:40.341Z,96.30
2022-10-12T17:54:07.048Z,96.30
2022-10-12T17:56:33.843Z,96.30
2022-10-12T17:59:01.827Z,96.50
2022-10-12T18:01:29.327Z,96.50
2022-10-12T18:03:58.805Z,96.40
2022-10-12T18:06:25.741Z,96.50
2022-10-12T18:08:52.625Z,96.10
2022-10-12T18:11:20.111Z,96.40
2022-10-12T18:13:48.400Z,96.60
2022-10-12T18:16:16.455Z,96.40
2022-10-12T18:18:43.356Z,96.50
2022-10-12T18:21:11.838Z,96.50
2022-10-12T18:23:38.676Z,96.40
2022-10-12T18:26:06.319Z,96.40
2022-10-12T18:28:33.792Z,96.50
2022-10-12T18:31:00.910Z,96.50
2022-10-12T18:33:27.718Z,96.50
2022-10-12T18:35:54.691Z,96.60
2022-10-12T18:38:21.489Z,96.60
2022-10-12T18:40:48.196Z,96.40
2022-10-12T18:43:15.148Z,96.50
2022-10-12T18:45:42.926Z,96.50
2022-10-12T18:48:09.909Z,96.50
2022-10-12T18:50:37.520Z,96.40
2022-10-12T18:53:04.288Z,96.40
2022-10-12T18:55:31.047Z,96.60
2022-10-12T18:57:57.863Z,96.50
2022-10-12T19:00:24.607Z,96.50
2022-10-12T19:02:51.353Z,96.50
2022-10-12T19:05:18.224Z,96.60
2022-10-12T19:07:45.066Z,96.50
2022-10-12T19:10:11.874Z,96.60
2022-10-12T19:12:42.155Z,96.70
2022-10-12T19:15:11.614Z,96.50
2022-10-12T19:17:38.317Z,96.30
2022-10-12T19:20:05.419Z,96.70
2022-10-12T19:22:32.154Z,96.40
2022-10-12T19:24:58.868Z,96.40
2022-10-12T19:27:25.760Z,96.50
2022-10-12T19:29:52.538Z,96.40
2022-10-12T19:32:19.715Z,96.50
2022-10-12T19:34:46.728Z,96.60
2022-10-12T19:37:13.444Z,96.50
2022-10-12T19:39:44.753Z,96.50
2022-10-12T19:42:11.571Z,96.50
2022-10-12T19:44:38.328Z,96.50
2022-10-12T19:47:05.058Z,96.40
2022-10-12T19:49:36.457Z,96.50
2022-10-12T19:52:04.024Z,96.60
2022-10-12T19:54:34.164Z,96.50
2022-10-12T19:57:03.120Z,96.50
2022-10-12T19:59:29.920Z,96.60
2022-10-12T20:01:56.696Z,96.40
2022-10-12T20:04:24.256Z,96.10
2022-10-12T20:06:51.023Z,96.20
2022-10-12T20:09:17.809Z,96.50
2022-10-12T20:11:44.639Z,96.60
2022-10-12T20:14:11.425Z,96.50
2022-10-12T20:16:38.220Z,96.50
2022-10-12T20:19:05.553Z,96.60
2022-10-12T20:21:32.589Z,96.30
2022-10-12T20:23:59.423Z,96.30
2022-10-12T20:26:26.344Z,96.20
2022-10-12T20:28:53.795Z,96.30
2022-10-12T20:31:23.613Z,96.30
2022-10-12T20:33:53.602Z,96.30
2022-10-12T20:36:22.249Z,96.40
2022-10-12T20:38:49.150Z,96.20
2022-10-12T20:41:17.941Z,96.10
2022-10-12T20:43:44.959Z,96.20
2022-10-12T20:46:13.077Z,96.30
2022-10-12T20:48:40.257Z,96.30
2022-10-12T20:51:07.900Z,96.30
2022-10-12T20:53:35.030Z,96.10
2022-10-12T20:56:05.800Z,96.30
2022-10-12T20:58:33.086Z,96.30
2022-10-12T21:01:04.087Z,96.40
2022-10-12T21:03:30.903Z,96.40
2022-10-12T21:06:01.349Z,96.40
2022-10-12T21:08:28.072Z,96.30
2022-10-12T21:10:54.821Z,96.20
2022-10-12T21:13:21.522Z,96.30
2022-10-12T21:15:54.858Z,96.40
2022-10-12T21:18:21.767Z,96.40
2022-10-12T21:21:01.743Z,96.30
2022-10-12T21:23:28.640Z,96.30
2022-10-12T21:25:55.498Z,96.20
2022-10-12T21:28:22.859Z,96.40
2022-10-12T21:30:49.998Z,96.30
2022-10-12T21:33:17.421Z,96.30
2022-10-12T21:35:44.205Z,96.50
2022-10-12T21:38:10.933Z,96.40
2022-10-12T21:40:37.644Z,96.30
2022-10-12T21:43:04.389Z,96.30
2022-10-12T21:45:31.105Z,96.40
2022-10-12T21:47:58.537Z,96.40
2022-10-12T21:50:25.463Z,96.30
2022-10-12T21:52:54.486Z,96.40
2022-10-12T21:55:24.643Z,96.30
2022-10-12T21:57:51.448Z,96.30
2022-10-12T22:00:18.281Z,96.20
2022-10-12T22:02:45.020Z,96.30
2022-10-12T22:05:11.832Z,96.30
2022-10-12T22:07:40.772Z,96.40
2022-10-12T22:10:07.777Z,96.40
2022-10-12T22:12:34.560Z,96.40
2022-10-12T22:15:01.299Z,96.30
2022-10-12T22:17:28.119Z,96.40
2022-10-12T22:19:55.681Z,96.60
2022-10-12T22:22:22.527Z,96.30
2022-10-12T22:24:49.379Z,96.20
2022-10-12T22:27:16.336Z,96.20
2022-10-12T22:29:43.207Z,96.20
2022-10-12T22:32:10.032Z,96.10
2022-10-12T22:34:36.896Z,96.30
2022-10-12T22:37:03.732Z,96.30
2022-10-12T22:39:30.556Z,96.30
2022-10-12T22:41:57.438Z,96.10
2022-10-12T22:44:24.309Z,96.30
2022-10-12T22:46:51.150Z,96.20
2022-10-12T22:49:18.117Z,96.50
2022-10-12T22:51:45.417Z,96.30
2022-10-12T22:54:13.430Z,96.20
2022-10-12T22:56:40.965Z,96.30
2022-10-12T22:59:08.032Z,96.30
2022-10-12T23:09:48.335Z,96.20
2022-10-12T23:12:15.126Z,96.10
2022-10-12T23:14:42.673Z,96.30
2022-10-12T23:17:09.490Z,96.20
2022-10-12T23:19:36.189Z,96.00
2022-10-12T23:22:02.879Z,96.00
2022-10-12T23:24:29.695Z,96.10
2022-10-12T23:26:56.372Z,96.20
2022-10-12T23:29:23.084Z,96.30
2022-10-12T23:31:49.927Z,96.20
2022-10-12T23:34:16.665Z,96.30
2022-10-12T23:36:43.390Z,96.20
2022-10-12T23:39:10.164Z,96.20
2022-10-12T23:41:36.872Z,96.00
2022-10-12T23:44:03.748Z,96.20
2022-10-12T23:46:30.711Z,96.30
2022-10-12T23:48:57.462Z,96.20
2022-10-12T23:51:24.353Z,96.10
2022-10-12T23:53:51.112Z,96.10
2022-10-12T23:56:17.835Z,96.20
2022-10-12T23:58:44.610Z,96.20
